sensor_id;sensor_type;location;lat;lon;timestamp;P1;durP1;ratioP1;P2;durP2;ratioP2
72557;SDS011;60583;50.094;8.748;2023-02-11T00:01:47;40.10;;;20.70;;
72557;SDS011;60583;50.094;8.748;2023-02-11T00:04:12;41.80;;;21.60;;
72557;SDS011;60583;50.094;8.748;2023-02-11T00:06:38;43.10;;;21.45;;
72557;SDS011;60583;50.094;8.748;2023-02-11T00:09:04;41.13;;;20.75;;
72557;SDS011;60583;50.094;8.748;2023-02-11T00:11:30;43.40;;;20.55;;
72557;SDS011;60583;50.094;8.748;2023-02-11T00:13:56;40.75;;;20.75;;
72557;SDS011;60583;50.094;8.748;2023-02-11T00:16:23;43.53;;;21.95;;
72557;SDS011;60583;50.094;8.748;2023-02-11T00:18:49;41.78;;;20.30;;
72557;SDS011;60583;50.094;8.748;2023-02-11T00:21:18;40.40;;;20.95;;
72557;SDS011;60583;50.094;8.748;2023-02-11T00:23:46;40.30;;;20.75;;
72557;SDS011;60583;50.094;8.748;2023-02-11T00:28:45;39.58;;;19.27;;
72557;SDS011;60583;50.094;8.748;2023-02-11T00:31:12;43.13;;;21.17;;
72557;SDS011;60583;50.094;8.748;2023-02-11T00:33:39;41.42;;;20.80;;
72557;SDS011;60583;50.094;8.748;2023-02-11T00:36:14;44.83;;;21.73;;
72557;SDS011;60583;50.094;8.748;2023-02-11T00:38:48;39.72;;;20.15;;
72557;SDS011;60583;50.094;8.748;2023-02-11T00:41:14;37.42;;;19.35;;
72557;SDS011;60583;50.094;8.748;2023-02-11T00:43:41;41.17;;;20.85;;
72557;SDS011;60583;50.094;8.748;2023-02-11T00:46:06;43.72;;;20.63;;
72557;SDS011;60583;50.094;8.748;2023-02-11T00:48:33;40.53;;;20.30;;
72557;SDS011;60583;50.094;8.748;2023-02-11T00:50:58;41.70;;;19.05;;
72557;SDS011;60583;50.094;8.748;2023-02-11T00:53:24;42.63;;;19.45;;
72557;SDS011;60583;50.094;8.748;2023-02-11T00:55:50;38.83;;;19.10;;
72557;SDS011;60583;50.094;8.748;2023-02-11T00:58:15;43.17;;;20.70;;
72557;SDS011;60583;50.094;8.748;2023-02-11T01:00:41;46.63;;;21.67;;
72557;SDS011;60583;50.094;8.748;2023-02-11T01:03:06;46.47;;;20.63;;
72557;SDS011;60583;50.094;8.748;2023-02-11T01:05:32;42.10;;;19.42;;
72557;SDS011;60583;50.094;8.748;2023-02-11T01:07:57;39.00;;;19.80;;
72557;SDS011;60583;50.094;8.748;2023-02-11T01:10:23;41.63;;;20.70;;
72557;SDS011;60583;50.094;8.748;2023-02-11T01:12:49;44.60;;;19.67;;
72557;SDS011;60583;50.094;8.748;2023-02-11T01:15:15;42.22;;;19.17;;
72557;SDS011;60583;50.094;8.748;2023-02-11T01:17:42;43.70;;;20.98;;
72557;SDS011;60583;50.094;8.748;2023-02-11T01:20:11;41.67;;;21.10;;
72557;SDS011;60583;50.094;8.748;2023-02-11T01:22:39;39.90;;;19.50;;
72557;SDS011;60583;50.094;8.748;2023-02-11T01:25:05;41.45;;;20.20;;
72557;SDS011;60583;50.094;8.748;2023-02-11T01:27:31;39.80;;;19.42;;
72557;SDS011;60583;50.094;8.748;2023-02-11T01:29:57;40.72;;;20.60;;
72557;SDS011;60583;50.094;8.748;2023-02-11T01:32:23;39.45;;;19.27;;
72557;SDS011;60583;50.094;8.748;2023-02-11T01:34:48;41.25;;;19.88;;
72557;SDS011;60583;50.094;8.748;2023-02-11T01:37:14;41.28;;;20.60;;
72557;SDS011;60583;50.094;8.748;2023-02-11T01:39:39;41.33;;;20.27;;
72557;SDS011;60583;50.094;8.748;2023-02-11T01:42:05;42.53;;;20.38;;
72557;SDS011;60583;50.094;8.748;2023-02-11T01:44:33;42.40;;;21.27;;
72557;SDS011;60583;50.094;8.748;2023-02-11T01:47:00;41.13;;;20.10;;
72557;SDS011;60583;50.094;8.748;2023-02-11T01:49:48;37.92;;;19.30;;
72557;SDS011;60583;50.094;8.748;2023-02-11T01:52:36;37.10;;;18.75;;
72557;SDS011;60583;50.094;8.748;2023-02-11T01:55:05;40.25;;;18.92;;
72557;SDS011;60583;50.094;8.748;2023-02-11T01:57:54;41.03;;;19.95;;
72557;SDS011;60583;50.094;8.748;2023-02-11T02:00:24;38.38;;;19.52;;
72557;SDS011;60583;50.094;8.748;2023-02-11T02:03:01;41.38;;;19.75;;
72557;SDS011;60583;50.094;8.748;2023-02-11T02:05:38;38.35;;;20.90;;
72557;SDS011;60583;50.094;8.748;2023-02-11T02:08:10;40.05;;;19.92;;
72557;SDS011;60583;50.094;8.748;2023-02-11T02:10:50;41.85;;;19.55;;
72557;SDS011;60583;50.094;8.748;2023-02-11T02:13:23;43.35;;;19.60;;
72557;SDS011;60583;50.094;8.748;2023-02-11T02:15:53;42.47;;;20.10;;
72557;SDS011;60583;50.094;8.748;2023-02-11T02:21:10;39.83;;;19.35;;
72557;SDS011;60583;50.094;8.748;2023-02-11T02:29:42;38.00;;;19.48;;
72557;SDS011;60583;50.094;8.748;2023-02-11T02:32:32;38.10;;;19.60;;
72557;SDS011;60583;50.094;8.748;2023-02-11T02:37:43;39.05;;;19.40;;
72557;SDS011;60583;50.094;8.748;2023-02-11T02:40:18;40.22;;;19.92;;
72557;SDS011;60583;50.094;8.748;2023-02-11T02:42:49;38.75;;;18.58;;
72557;SDS011;60583;50.094;8.748;2023-02-11T02:45:16;39.38;;;19.33;;
72557;SDS011;60583;50.094;8.748;2023-02-11T02:47:43;38.90;;;19.55;;
72557;SDS011;60583;50.094;8.748;2023-02-11T02:50:09;42.28;;;19.60;;
72557;SDS011;60583;50.094;8.748;2023-02-11T03:04:47;39.15;;;20.05;;
72557;SDS011;60583;50.094;8.748;2023-02-11T03:07:26;36.80;;;19.83;;
72557;SDS011;60583;50.094;8.748;2023-02-11T03:10:06;40.85;;;18.80;;
72557;SDS011;60583;50.094;8.748;2023-02-11T03:12:37;39.85;;;19.60;;
72557;SDS011;60583;50.094;8.748;2023-02-11T03:15:05;41.97;;;19.35;;
72557;SDS011;60583;50.094;8.748;2023-02-11T03:17:31;40.05;;;18.85;;
72557;SDS011;60583;50.094;8.748;2023-02-11T03:19:59;41.10;;;19.90;;
72557;SDS011;60583;50.094;8.748;2023-02-11T03:22:34;38.10;;;19.17;;
72557;SDS011;60583;50.094;8.748;2023-02-11T03:25:04;38.40;;;18.77;;
72557;SDS011;60583;50.094;8.748;2023-02-11T03:27:32;42.42;;;19.38;;
72557;SDS011;60583;50.094;8.748;2023-02-11T03:33:23;39.67;;;19.15;;
72557;SDS011;60583;50.094;8.748;2023-02-11T03:35:54;38.67;;;17.15;;
72557;SDS011;60583;50.094;8.748;2023-02-11T03:38:38;38.60;;;17.83;;
72557;SDS011;60583;50.094;8.748;2023-02-11T03:41:08;36.97;;;17.83;;
72557;SDS011;60583;50.094;8.748;2023-02-11T03:43:40;39.92;;;18.55;;
72557;SDS011;60583;50.094;8.748;2023-02-11T03:46:09;37.88;;;17.77;;
72557;SDS011;60583;50.094;8.748;2023-02-11T03:48:40;35.10;;;17.17;;
72557;SDS011;60583;50.094;8.748;2023-02-11T03:51:10;35.38;;;17.20;;
72557;SDS011;60583;50.094;8.748;2023-02-11T03:53:37;35.90;;;18.05;;
72557;SDS011;60583;50.094;8.748;2023-02-11T03:56:07;34.78;;;17.35;;
72557;SDS011;60583;50.094;8.748;2023-02-11T03:58:36;36.30;;;18.63;;
72557;SDS011;60583;50.094;8.748;2023-02-11T04:01:02;37.88;;;18.25;;
72557;SDS011;60583;50.094;8.748;2023-02-11T04:03:29;37.50;;;18.15;;
72557;SDS011;60583;50.094;8.748;2023-02-11T04:05:57;38.50;;;18.08;;
72557;SDS011;60583;50.094;8.748;2023-02-11T04:08:22;37.90;;;18.98;;
72557;SDS011;60583;50.094;8.748;2023-02-11T04:10:48;39.83;;;18.95;;
72557;SDS011;60583;50.094;8.748;2023-02-11T04:13:13;35.88;;;17.60;;
72557;SDS011;60583;50.094;8.748;2023-02-11T04:15:39;36.50;;;18.35;;
72557;SDS011;60583;50.094;8.748;2023-02-11T04:18:04;39.03;;;18.25;;
72557;SDS011;60583;50.094;8.748;2023-02-11T04:20:30;37.05;;;17.63;;
72557;SDS011;60583;50.094;8.748;2023-02-11T04:22:55;35.47;;;18.08;;
72557;SDS011;60583;50.094;8.748;2023-02-11T04:25:21;37.38;;;19.92;;
72557;SDS011;60583;50.094;8.748;2023-02-11T04:27:46;35.97;;;17.35;;
72557;SDS011;60583;50.094;8.748;2023-02-11T04:30:12;37.90;;;18.10;;
72557;SDS011;60583;50.094;8.748;2023-02-11T04:32:37;34.47;;;17.15;;
72557;SDS011;60583;50.094;8.748;2023-02-11T04:35:03;32.60;;;17.10;;
72557;SDS011;60583;50.094;8.748;2023-02-11T04:37:29;37.13;;;17.10;;
72557;SDS011;60583;50.094;8.748;2023-02-11T04:39:55;37.63;;;16.90;;
72557;SDS011;60583;50.094;8.748;2023-02-11T04:42:20;35.20;;;17.02;;
72557;SDS011;60583;50.094;8.748;2023-02-11T04:44:46;36.08;;;17.23;;
72557;SDS011;60583;50.094;8.748;2023-02-11T04:47:11;34.95;;;17.52;;
72557;SDS011;60583;50.094;8.748;2023-02-11T04:49:39;33.97;;;17.27;;
72557;SDS011;60583;50.094;8.748;2023-02-11T04:52:04;34.40;;;16.65;;
72557;SDS011;60583;50.094;8.748;2023-02-11T04:54:30;33.95;;;18.52;;
72557;SDS011;60583;50.094;8.748;2023-02-11T04:56:55;34.53;;;16.60;;
72557;SDS011;60583;50.094;8.748;2023-02-11T04:59:21;33.03;;;16.05;;
72557;SDS011;60583;50.094;8.748;2023-02-11T05:01:46;34.28;;;16.13;;
72557;SDS011;60583;50.094;8.748;2023-02-11T05:04:12;36.22;;;16.48;;
72557;SDS011;60583;50.094;8.748;2023-02-11T05:06:37;32.65;;;17.08;;
72557;SDS011;60583;50.094;8.748;2023-02-11T05:09:03;35.58;;;16.05;;
72557;SDS011;60583;50.094;8.748;2023-02-11T05:11:29;33.97;;;16.58;;
72557;SDS011;60583;50.094;8.748;2023-02-11T05:13:55;34.53;;;16.55;;
72557;SDS011;60583;50.094;8.748;2023-02-11T05:16:20;33.95;;;16.50;;
72557;SDS011;60583;50.094;8.748;2023-02-11T05:18:46;34.95;;;18.02;;
72557;SDS011;60583;50.094;8.748;2023-02-11T05:21:16;33.05;;;17.23;;
72557;SDS011;60583;50.094;8.748;2023-02-11T05:23:43;35.78;;;17.13;;
72557;SDS011;60583;50.094;8.748;2023-02-11T05:26:09;34.22;;;16.50;;
72557;SDS011;60583;50.094;8.748;2023-02-11T05:28:35;33.58;;;16.17;;
72557;SDS011;60583;50.094;8.748;2023-02-11T05:31:01;31.08;;;16.05;;
72557;SDS011;60583;50.094;8.748;2023-02-11T05:33:27;34.33;;;15.80;;
72557;SDS011;60583;50.094;8.748;2023-02-11T05:35:59;35.53;;;17.25;;
72557;SDS011;60583;50.094;8.748;2023-02-11T05:38:26;31.40;;;16.17;;
72557;SDS011;60583;50.094;8.748;2023-02-11T05:40:52;35.75;;;16.90;;
72557;SDS011;60583;50.094;8.748;2023-02-11T05:43:18;31.70;;;16.58;;
72557;SDS011;60583;50.094;8.748;2023-02-11T05:45:43;35.85;;;16.70;;
72557;SDS011;60583;50.094;8.748;2023-02-11T05:48:09;33.17;;;16.33;;
72557;SDS011;60583;50.094;8.748;2023-02-11T05:50:34;33.38;;;16.27;;
72557;SDS011;60583;50.094;8.748;2023-02-11T05:53:00;32.25;;;15.77;;
72557;SDS011;60583;50.094;8.748;2023-02-11T05:55:25;33.58;;;16.95;;
72557;SDS011;60583;50.094;8.748;2023-02-11T05:57:51;35.05;;;16.85;;
72557;SDS011;60583;50.094;8.748;2023-02-11T06:00:16;32.80;;;16.70;;
72557;SDS011;60583;50.094;8.748;2023-02-11T06:02:42;33.05;;;16.02;;
72557;SDS011;60583;50.094;8.748;2023-02-11T06:05:08;32.05;;;16.67;;
72557;SDS011;60583;50.094;8.748;2023-02-11T06:07:33;31.92;;;16.25;;
72557;SDS011;60583;50.094;8.748;2023-02-11T06:09:59;32.10;;;15.90;;
72557;SDS011;60583;50.094;8.748;2023-02-11T06:12:24;32.53;;;17.00;;
72557;SDS011;60583;50.094;8.748;2023-02-11T06:14:51;33.00;;;15.95;;
72557;SDS011;60583;50.094;8.748;2023-02-11T06:17:17;31.88;;;16.38;;
72557;SDS011;60583;50.094;8.748;2023-02-11T06:19:42;33.33;;;16.45;;
72557;SDS011;60583;50.094;8.748;2023-02-11T06:22:08;32.47;;;15.75;;
72557;SDS011;60583;50.094;8.748;2023-02-11T06:24:34;30.45;;;16.13;;
72557;SDS011;60583;50.094;8.748;2023-02-11T06:27:02;29.88;;;16.77;;
72557;SDS011;60583;50.094;8.748;2023-02-11T06:29:28;30.50;;;15.65;;
72557;SDS011;60583;50.094;8.748;2023-02-11T06:31:53;32.13;;;16.33;;
72557;SDS011;60583;50.094;8.748;2023-02-11T06:34:19;33.90;;;16.10;;
72557;SDS011;60583;50.094;8.748;2023-02-11T06:36:44;30.10;;;15.88;;
72557;SDS011;60583;50.094;8.748;2023-02-11T06:39:11;31.30;;;15.48;;
72557;SDS011;60583;50.094;8.748;2023-02-11T06:41:37;34.65;;;16.05;;
72557;SDS011;60583;50.094;8.748;2023-02-11T06:44:03;31.80;;;16.15;;
72557;SDS011;60583;50.094;8.748;2023-02-11T06:46:28;32.10;;;15.65;;
72557;SDS011;60583;50.094;8.748;2023-02-11T06:48:54;29.58;;;15.25;;
72557;SDS011;60583;50.094;8.748;2023-02-11T06:51:19;30.90;;;15.70;;
72557;SDS011;60583;50.094;8.748;2023-02-11T06:53:45;33.45;;;16.23;;
72557;SDS011;60583;50.094;8.748;2023-02-11T06:56:12;30.98;;;15.57;;
72557;SDS011;60583;50.094;8.748;2023-02-11T06:58:51;33.05;;;15.90;;
72557;SDS011;60583;50.094;8.748;2023-02-11T07:01:20;30.33;;;14.70;;
72557;SDS011;60583;50.094;8.748;2023-02-11T07:03:46;35.33;;;15.35;;
72557;SDS011;60583;50.094;8.748;2023-02-11T07:06:13;30.70;;;15.93;;
72557;SDS011;60583;50.094;8.748;2023-02-11T07:08:40;29.60;;;15.73;;
72557;SDS011;60583;50.094;8.748;2023-02-11T07:11:07;30.48;;;15.05;;
72557;SDS011;60583;50.094;8.748;2023-02-11T07:13:37;29.20;;;14.65;;
72557;SDS011;60583;50.094;8.748;2023-02-11T07:16:06;29.98;;;15.45;;
72557;SDS011;60583;50.094;8.748;2023-02-11T07:18:33;30.33;;;15.05;;
72557;SDS011;60583;50.094;8.748;2023-02-11T07:20:59;30.08;;;15.48;;
72557;SDS011;60583;50.094;8.748;2023-02-11T07:23:31;30.67;;;14.88;;
72557;SDS011;60583;50.094;8.748;2023-02-11T07:26:01;31.95;;;14.60;;
72557;SDS011;60583;50.094;8.748;2023-02-11T07:28:29;30.23;;;14.88;;
72557;SDS011;60583;50.094;8.748;2023-02-11T07:30:55;28.23;;;14.20;;
72557;SDS011;60583;50.094;8.748;2023-02-11T07:33:21;32.63;;;15.48;;
72557;SDS011;60583;50.094;8.748;2023-02-11T07:35:47;29.85;;;15.43;;
72557;SDS011;60583;50.094;8.748;2023-02-11T07:38:12;31.17;;;16.00;;
72557;SDS011;60583;50.094;8.748;2023-02-11T07:40:38;29.60;;;14.52;;
72557;SDS011;60583;50.094;8.748;2023-02-11T07:43:03;30.23;;;14.98;;
72557;SDS011;60583;50.094;8.748;2023-02-11T07:45:29;33.53;;;15.32;;
72557;SDS011;60583;50.094;8.748;2023-02-11T07:47:54;29.35;;;14.90;;
72557;SDS011;60583;50.094;8.748;2023-02-11T07:50:20;31.77;;;15.10;;
72557;SDS011;60583;50.094;8.748;2023-02-11T07:52:46;30.92;;;15.10;;
72557;SDS011;60583;50.094;8.748;2023-02-11T07:55:11;29.23;;;14.98;;
72557;SDS011;60583;50.094;8.748;2023-02-11T07:57:37;30.10;;;16.42;;
72557;SDS011;60583;50.094;8.748;2023-02-11T08:00:03;31.25;;;14.98;;
72557;SDS011;60583;50.094;8.748;2023-02-11T08:02:29;30.05;;;14.50;;
72557;SDS011;60583;50.094;8.748;2023-02-11T08:04:55;32.50;;;16.25;;
72557;SDS011;60583;50.094;8.748;2023-02-11T08:07:20;28.85;;;14.70;;
72557;SDS011;60583;50.094;8.748;2023-02-11T08:09:46;33.03;;;15.02;;
72557;SDS011;60583;50.094;8.748;2023-02-11T08:12:11;30.58;;;16.55;;
72557;SDS011;60583;50.094;8.748;2023-02-11T08:14:37;29.45;;;14.43;;
72557;SDS011;60583;50.094;8.748;2023-02-11T08:17:02;29.05;;;15.50;;
72557;SDS011;60583;50.094;8.748;2023-02-11T08:19:28;29.80;;;15.30;;
72557;SDS011;60583;50.094;8.748;2023-02-11T08:21:54;28.58;;;14.45;;
72557;SDS011;60583;50.094;8.748;2023-02-11T08:24:20;30.75;;;15.63;;
72557;SDS011;60583;50.094;8.748;2023-02-11T08:26:45;31.35;;;16.33;;
72557;SDS011;60583;50.094;8.748;2023-02-11T08:29:11;28.98;;;14.73;;
72557;SDS011;60583;50.094;8.748;2023-02-11T08:31:39;29.90;;;15.32;;
72557;SDS011;60583;50.094;8.748;2023-02-11T08:34:06;31.38;;;16.02;;
72557;SDS011;60583;50.094;8.748;2023-02-11T08:36:35;30.50;;;15.82;;
72557;SDS011;60583;50.094;8.748;2023-02-11T08:39:03;28.70;;;15.00;;
72557;SDS011;60583;50.094;8.748;2023-02-11T08:41:31;29.75;;;14.75;;
72557;SDS011;60583;50.094;8.748;2023-02-11T08:43:57;30.58;;;15.77;;
72557;SDS011;60583;50.094;8.748;2023-02-11T08:46:22;32.25;;;15.90;;
72557;SDS011;60583;50.094;8.748;2023-02-11T08:48:48;31.67;;;15.45;;
72557;SDS011;60583;50.094;8.748;2023-02-11T08:51:18;28.90;;;15.40;;
72557;SDS011;60583;50.094;8.748;2023-02-11T08:53:45;27.65;;;14.90;;
72557;SDS011;60583;50.094;8.748;2023-02-11T08:56:11;25.55;;;14.43;;
72557;SDS011;60583;50.094;8.748;2023-02-11T08:58:37;30.92;;;15.88;;
72557;SDS011;60583;50.094;8.748;2023-02-11T09:01:10;32.83;;;15.65;;
72557;SDS011;60583;50.094;8.748;2023-02-11T09:03:40;31.98;;;15.00;;
72557;SDS011;60583;50.094;8.748;2023-02-11T09:06:06;29.77;;;15.30;;
72557;SDS011;60583;50.094;8.748;2023-02-11T09:08:36;29.40;;;15.50;;
72557;SDS011;60583;50.094;8.748;2023-02-11T09:13:30;28.50;;;14.60;;
72557;SDS011;60583;50.094;8.748;2023-02-11T09:15:57;31.55;;;15.70;;
72557;SDS011;60583;50.094;8.748;2023-02-11T09:18:27;28.33;;;15.02;;
72557;SDS011;60583;50.094;8.748;2023-02-11T09:20:53;33.92;;;17.08;;
72557;SDS011;60583;50.094;8.748;2023-02-11T09:23:25;29.98;;;15.43;;
72557;SDS011;60583;50.094;8.748;2023-02-11T09:25:51;32.85;;;16.05;;
72557;SDS011;60583;50.094;8.748;2023-02-11T09:28:16;32.47;;;17.10;;
72557;SDS011;60583;50.094;8.748;2023-02-11T09:30:42;30.08;;;15.77;;
72557;SDS011;60583;50.094;8.748;2023-02-11T09:33:07;29.85;;;16.73;;
72557;SDS011;60583;50.094;8.748;2023-02-11T09:35:33;29.02;;;15.73;;
72557;SDS011;60583;50.094;8.748;2023-02-11T09:37:58;29.45;;;15.45;;
72557;SDS011;60583;50.094;8.748;2023-02-11T09:40:24;31.67;;;17.25;;
72557;SDS011;60583;50.094;8.748;2023-02-11T09:42:52;30.48;;;16.00;;
72557;SDS011;60583;50.094;8.748;2023-02-11T09:45:28;31.90;;;16.17;;
72557;SDS011;60583;50.094;8.748;2023-02-11T09:48:05;32.42;;;16.60;;
72557;SDS011;60583;50.094;8.748;2023-02-11T09:50:39;31.55;;;16.73;;
72557;SDS011;60583;50.094;8.748;2023-02-11T09:53:13;32.10;;;17.10;;
72557;SDS011;60583;50.094;8.748;2023-02-11T09:55:47;32.75;;;17.30;;
72557;SDS011;60583;50.094;8.748;2023-02-11T10:01:29;32.67;;;16.10;;
72557;SDS011;60583;50.094;8.748;2023-02-11T10:04:13;30.27;;;15.50;;
72557;SDS011;60583;50.094;8.748;2023-02-11T10:07:01;27.90;;;15.45;;
72557;SDS011;60583;50.094;8.748;2023-02-11T10:10:06;31.05;;;16.52;;
72557;SDS011;60583;50.094;8.748;2023-02-11T10:15:35;30.25;;;16.13;;
72557;SDS011;60583;50.094;8.748;2023-02-11T10:21:01;31.15;;;15.82;;
72557;SDS011;60583;50.094;8.748;2023-02-11T10:23:38;30.75;;;15.80;;
72557;SDS011;60583;50.094;8.748;2023-02-11T10:26:13;28.60;;;15.93;;
72557;SDS011;60583;50.094;8.748;2023-02-11T10:28:43;33.15;;;16.95;;
72557;SDS011;60583;50.094;8.748;2023-02-11T10:31:21;28.48;;;15.80;;
72557;SDS011;60583;50.094;8.748;2023-02-11T10:33:57;31.02;;;16.52;;
72557;SDS011;60583;50.094;8.748;2023-02-11T10:36:30;31.75;;;16.83;;
72557;SDS011;60583;50.094;8.748;2023-02-11T10:38:59;33.17;;;17.95;;
72557;SDS011;60583;50.094;8.748;2023-02-11T10:41:35;33.67;;;20.23;;
72557;SDS011;60583;50.094;8.748;2023-02-11T10:44:05;36.17;;;19.15;;
72557;SDS011;60583;50.094;8.748;2023-02-11T10:46:32;33.58;;;18.10;;
72557;SDS011;60583;50.094;8.748;2023-02-11T10:49:00;29.27;;;16.25;;
72557;SDS011;60583;50.094;8.748;2023-02-11T10:51:28;35.95;;;19.48;;
72557;SDS011;60583;50.094;8.748;2023-02-11T10:56:44;32.42;;;16.35;;
72557;SDS011;60583;50.094;8.748;2023-02-11T10:59:16;31.33;;;15.85;;
72557;SDS011;60583;50.094;8.748;2023-02-11T11:01:55;29.52;;;14.73;;
72557;SDS011;60583;50.094;8.748;2023-02-11T11:04:32;32.50;;;15.68;;
72557;SDS011;60583;50.094;8.748;2023-02-11T11:07:16;32.70;;;17.25;;
72557;SDS011;60583;50.094;8.748;2023-02-11T11:09:48;33.80;;;18.23;;
72557;SDS011;60583;50.094;8.748;2023-02-11T11:15:14;35.15;;;17.13;;
72557;SDS011;60583;50.094;8.748;2023-02-11T11:17:44;30.13;;;16.75;;
72557;SDS011;60583;50.094;8.748;2023-02-11T11:23:09;31.90;;;16.20;;
72557;SDS011;60583;50.094;8.748;2023-02-11T11:25:42;31.35;;;15.88;;
72557;SDS011;60583;50.094;8.748;2023-02-11T11:28:23;34.00;;;17.70;;
72557;SDS011;60583;50.094;8.748;2023-02-11T11:30:50;32.30;;;15.73;;
72557;SDS011;60583;50.094;8.748;2023-02-11T11:33:19;32.83;;;17.20;;
72557;SDS011;60583;50.094;8.748;2023-02-11T11:38:55;30.58;;;15.32;;
72557;SDS011;60583;50.094;8.748;2023-02-11T11:41:25;31.25;;;15.95;;
72557;SDS011;60583;50.094;8.748;2023-02-11T11:43:53;31.17;;;16.38;;
72557;SDS011;60583;50.094;8.748;2023-02-11T11:46:25;31.10;;;16.50;;
72557;SDS011;60583;50.094;8.748;2023-02-11T11:48:54;31.48;;;15.48;;
72557;SDS011;60583;50.094;8.748;2023-02-11T11:51:24;31.30;;;15.95;;
72557;SDS011;60583;50.094;8.748;2023-02-11T11:53:53;30.52;;;15.88;;
72557;SDS011;60583;50.094;8.748;2023-02-11T11:56:25;30.33;;;15.55;;
72557;SDS011;60583;50.094;8.748;2023-02-11T11:58:53;30.52;;;16.15;;
72557;SDS011;60583;50.094;8.748;2023-02-11T12:04:03;31.83;;;15.63;;
72557;SDS011;60583;50.094;8.748;2023-02-11T12:09:25;30.63;;;16.27;;
72557;SDS011;60583;50.094;8.748;2023-02-11T12:26:18;33.78;;;17.88;;
72557;SDS011;60583;50.094;8.748;2023-02-11T12:34:35;29.50;;;16.42;;
72557;SDS011;60583;50.094;8.748;2023-02-11T12:37:22;30.10;;;15.98;;
72557;SDS011;60583;50.094;8.748;2023-02-11T12:57:22;29.15;;;15.63;;
72557;SDS011;60583;50.094;8.748;2023-02-11T13:00:02;31.67;;;16.40;;
72557;SDS011;60583;50.094;8.748;2023-02-11T13:05:36;32.97;;;15.43;;
72557;SDS011;60583;50.094;8.748;2023-02-11T13:08:10;26.85;;;14.80;;
72557;SDS011;60583;50.094;8.748;2023-02-11T13:10:40;27.75;;;14.02;;
72557;SDS011;60583;50.094;8.748;2023-02-11T13:13:28;30.45;;;14.75;;
72557;SDS011;60583;50.094;8.748;2023-02-11T13:16:01;26.83;;;14.02;;
72557;SDS011;60583;50.094;8.748;2023-02-11T13:21:20;28.88;;;15.10;;
72557;SDS011;60583;50.094;8.748;2023-02-11T13:24:11;26.13;;;13.95;;
72557;SDS011;60583;50.094;8.748;2023-02-11T13:26:48;25.70;;;13.75;;
72557;SDS011;60583;50.094;8.748;2023-02-11T13:29:22;25.73;;;14.32;;
72557;SDS011;60583;50.094;8.748;2023-02-11T13:32:17;28.55;;;14.45;;
72557;SDS011;60583;50.094;8.748;2023-02-11T13:37:23;26.35;;;13.20;;
72557;SDS011;60583;50.094;8.748;2023-02-11T13:42:51;26.80;;;13.25;;
72557;SDS011;60583;50.094;8.748;2023-02-11T13:45:41;24.85;;;13.25;;
72557;SDS011;60583;50.094;8.748;2023-02-11T13:48:25;25.42;;;12.73;;
72557;SDS011;60583;50.094;8.748;2023-02-11T13:50:59;27.70;;;13.20;;
72557;SDS011;60583;50.094;8.748;2023-02-11T13:53:29;23.40;;;12.23;;
72557;SDS011;60583;50.094;8.748;2023-02-11T13:56:11;28.00;;;13.98;;
72557;SDS011;60583;50.094;8.748;2023-02-11T13:58:51;26.73;;;14.38;;
72557;SDS011;60583;50.094;8.748;2023-02-11T14:04:36;26.52;;;13.30;;
72557;SDS011;60583;50.094;8.748;2023-02-11T14:11:02;24.02;;;12.68;;
72557;SDS011;60583;50.094;8.748;2023-02-11T14:16:18;25.27;;;12.98;;
72557;SDS011;60583;50.094;8.748;2023-02-11T14:24:38;24.75;;;12.75;;
72557;SDS011;60583;50.094;8.748;2023-02-11T14:26:58;22.67;;;11.77;;
72557;SDS011;60583;50.094;8.748;2023-02-11T14:29:57;24.25;;;13.45;;
72557;SDS011;60583;50.094;8.748;2023-02-11T14:32:40;25.00;;;12.20;;
72557;SDS011;60583;50.094;8.748;2023-02-11T14:35:15;21.55;;;11.73;;
72557;SDS011;60583;50.094;8.748;2023-02-11T14:40:57;23.10;;;11.43;;
72557;SDS011;60583;50.094;8.748;2023-02-11T14:43:26;25.73;;;13.73;;
72557;SDS011;60583;50.094;8.748;2023-02-11T14:46:09;24.15;;;12.35;;
72557;SDS011;60583;50.094;8.748;2023-02-11T14:48:35;23.15;;;12.50;;
72557;SDS011;60583;50.094;8.748;2023-02-11T14:53:57;22.38;;;12.05;;
72557;SDS011;60583;50.094;8.748;2023-02-11T14:56:42;21.98;;;12.00;;
72557;SDS011;60583;50.094;8.748;2023-02-11T14:59:16;22.50;;;11.90;;
72557;SDS011;60583;50.094;8.748;2023-02-11T15:01:44;25.13;;;11.70;;
72557;SDS011;60583;50.094;8.748;2023-02-11T15:04:24;23.90;;;12.40;;
72557;SDS011;60583;50.094;8.748;2023-02-11T15:06:50;20.83;;;11.55;;
72557;SDS011;60583;50.094;8.748;2023-02-11T15:09:16;22.85;;;10.80;;
72557;SDS011;60583;50.094;8.748;2023-02-11T15:11:48;20.73;;;11.18;;
72557;SDS011;60583;50.094;8.748;2023-02-11T15:14:21;22.02;;;11.80;;
72557;SDS011;60583;50.094;8.748;2023-02-11T15:16:50;22.02;;;11.35;;
72557;SDS011;60583;50.094;8.748;2023-02-11T15:19:33;20.73;;;11.05;;
72557;SDS011;60583;50.094;8.748;2023-02-11T15:25:00;24.38;;;11.40;;
72557;SDS011;60583;50.094;8.748;2023-02-11T15:27:38;18.50;;;9.88;;
72557;SDS011;60583;50.094;8.748;2023-02-11T15:32:46;17.25;;;9.65;;
72557;SDS011;60583;50.094;8.748;2023-02-11T15:35:15;19.13;;;10.40;;
72557;SDS011;60583;50.094;8.748;2023-02-11T15:37:42;24.60;;;12.23;;
72557;SDS011;60583;50.094;8.748;2023-02-11T15:40:16;18.95;;;11.07;;
72557;SDS011;60583;50.094;8.748;2023-02-11T15:43:08;20.70;;;10.18;;
72557;SDS011;60583;50.094;8.748;2023-02-11T15:48:20;21.35;;;11.40;;
72557;SDS011;60583;50.094;8.748;2023-02-11T15:50:53;23.48;;;11.27;;
72557;SDS011;60583;50.094;8.748;2023-02-11T15:53:38;20.63;;;11.20;;
72557;SDS011;60583;50.094;8.748;2023-02-11T15:56:17;22.33;;;11.20;;
72557;SDS011;60583;50.094;8.748;2023-02-11T15:58:48;24.10;;;12.35;;
72557;SDS011;60583;50.094;8.748;2023-02-11T16:01:15;23.73;;;12.00;;
72557;SDS011;60583;50.094;8.748;2023-02-11T16:03:41;21.75;;;12.48;;
72557;SDS011;60583;50.094;8.748;2023-02-11T16:06:15;24.48;;;12.60;;
72557;SDS011;60583;50.094;8.748;2023-02-11T16:08:55;22.20;;;12.00;;
72557;SDS011;60583;50.094;8.748;2023-02-11T16:14:19;24.13;;;12.07;;
72557;SDS011;60583;50.094;8.748;2023-02-11T16:16:51;22.67;;;11.60;;
72557;SDS011;60583;50.094;8.748;2023-02-11T16:19:20;20.40;;;11.05;;
72557;SDS011;60583;50.094;8.748;2023-02-11T16:21:48;23.30;;;12.38;;
72557;SDS011;60583;50.094;8.748;2023-02-11T16:24:18;22.73;;;11.88;;
72557;SDS011;60583;50.094;8.748;2023-02-11T16:26:47;22.17;;;11.88;;
72557;SDS011;60583;50.094;8.748;2023-02-11T16:29:15;22.67;;;11.75;;
72557;SDS011;60583;50.094;8.748;2023-02-11T16:31:46;22.20;;;11.90;;
72557;SDS011;60583;50.094;8.748;2023-02-11T16:34:23;28.85;;;13.90;;
72557;SDS011;60583;50.094;8.748;2023-02-11T16:36:50;26.15;;;12.88;;
72557;SDS011;60583;50.094;8.748;2023-02-11T16:39:17;23.35;;;12.85;;
72557;SDS011;60583;50.094;8.748;2023-02-11T16:41:45;22.13;;;11.65;;
72557;SDS011;60583;50.094;8.748;2023-02-11T16:44:11;20.77;;;10.55;;
72557;SDS011;60583;50.094;8.748;2023-02-11T16:46:37;20.77;;;11.55;;
72557;SDS011;60583;50.094;8.748;2023-02-11T16:49:06;21.30;;;12.10;;
72557;SDS011;60583;50.094;8.748;2023-02-11T16:51:39;20.33;;;11.43;;
72557;SDS011;60583;50.094;8.748;2023-02-11T16:54:06;24.73;;;11.70;;
72557;SDS011;60583;50.094;8.748;2023-02-11T16:56:35;23.17;;;12.18;;